sensor_id;sensor_type;location;lat;lon;timestamp;pressure;altitude;pressure_sealevel;temperature;humidity
5777;BME280;2914;42.668;23.346;2022-07-17T00:00:51;94898.03;;;24.64;63.17
5777;BME280;2914;42.668;23.346;2022-07-17T00:03:22;94899.99;;;24.59;63.17
5777;BME280;2914;42.668;23.346;2022-07-17T00:05:51;94895.67;;;24.58;62.72
5777;BME280;2914;42.668;23.346;2022-07-17T00:08:21;94894.09;;;24.60;62.53
5777;BME280;2914;42.668;23.346;2022-07-17T00:10:50;94906.48;;;24.67;62.89
5777;BME280;2914;42.668;23.346;2022-07-17T00:13:19;94905.20;;;24.61;63.07
5777;BME280;2914;42.668;23.346;2022-07-17T00:15:48;94911.20;;;24.63;63.00
5777;BME280;2914;42.668;23.346;2022-07-17T00:18:17;94912.11;;;24.66;62.81
5777;BME280;2914;42.668;23.346;2022-07-17T00:20:46;94904.41;;;24.69;62.62
5777;BME280;2914;42.668;23.346;2022-07-17T00:23:16;94913.48;;;24.59;63.04
5777;BME280;2914;42.668;23.346;2022-07-17T00:25:46;94913.42;;;24.56;63.45
5777;BME280;2914;42.668;23.346;2022-07-17T00:28:15;94908.73;;;24.61;62.97
5777;BME280;2914;42.668;23.346;2022-07-17T00:30:44;94913.78;;;24.60;62.81
5777;BME280;2914;42.668;23.346;2022-07-17T00:33:13;94916.91;;;24.64;62.82
5777;BME280;2914;42.668;23.346;2022-07-17T00:38:20;94912.59;;;24.72;62.39
5777;BME280;2914;42.668;23.346;2022-07-17T00:40:49;94917.89;;;24.53;62.62
5777;BME280;2914;42.668;23.346;2022-07-17T00:43:20;94924.45;;;24.39;63.06
5777;BME280;2914;42.668;23.346;2022-07-17T00:45:56;94914.73;;;24.47;63.16
5777;BME280;2914;42.668;23.346;2022-07-17T00:48:26;94920.41;;;24.39;63.18
5777;BME280;2914;42.668;23.346;2022-07-17T00:50:55;94923.09;;;24.39;62.97
5777;BME280;2914;42.668;23.346;2022-07-17T00:53:24;94927.45;;;24.40;62.80
5777;BME280;2914;42.668;23.346;2022-07-17T00:55:54;94919.95;;;24.42;62.81
5777;BME280;2914;42.668;23.346;2022-07-17T00:58:25;94923.19;;;24.42;62.90
5777;BME280;2914;42.668;23.346;2022-07-17T01:00:55;94924.45;;;24.39;63.21
5777;BME280;2914;42.668;23.346;2022-07-17T01:03:26;94926.61;;;24.39;63.09
5777;BME280;2914;42.668;23.346;2022-07-17T01:05:55;94929.84;;;24.39;63.07
5777;BME280;2914;42.668;23.346;2022-07-17T01:08:24;94930.28;;;24.36;63.20
5777;BME280;2914;42.668;23.346;2022-07-17T01:13:37;94938.50;;;24.32;63.11
5777;BME280;2914;42.668;23.346;2022-07-17T01:16:08;94937.97;;;24.32;62.96
5777;BME280;2914;42.668;23.346;2022-07-17T01:18:37;94941.48;;;24.33;63.08
5777;BME280;2914;42.668;23.346;2022-07-17T01:21:07;94936.40;;;24.34;62.91
5777;BME280;2914;42.668;23.346;2022-07-17T01:23:36;94937.30;;;24.37;62.53
5777;BME280;2914;42.668;23.346;2022-07-17T01:26:06;94931.55;;;24.33;62.76
5777;BME280;2914;42.668;23.346;2022-07-17T01:28:35;94935.72;;;24.29;62.79
5777;BME280;2914;42.668;23.346;2022-07-17T01:31:04;94936.09;;;24.33;62.33
5777;BME280;2914;42.668;23.346;2022-07-17T01:33:33;94928.48;;;24.39;61.82
5777;BME280;2914;42.668;23.346;2022-07-17T01:36:03;94930.34;;;24.38;61.86
5777;BME280;2914;42.668;23.346;2022-07-17T01:38:32;94931.95;;;24.46;61.45
5777;BME280;2914;42.668;23.346;2022-07-17T01:41:01;94931.00;;;24.50;61.29
5777;BME280;2914;42.668;23.346;2022-07-17T01:43:31;94923.37;;;24.56;61.01
5777;BME280;2914;42.668;23.346;2022-07-17T01:46:00;94934.91;;;24.54;61.34
5777;BME280;2914;42.668;23.346;2022-07-17T01:48:29;94942.02;;;24.58;61.16
5777;BME280;2914;42.668;23.346;2022-07-17T01:50:59;94945.14;;;24.61;60.96
5777;BME280;2914;42.668;23.346;2022-07-17T01:56:05;94922.67;;;24.67;61.06
5777;BME280;2914;42.668;23.346;2022-07-17T01:58:35;94924.69;;;24.63;61.07
5777;BME280;2914;42.668;23.346;2022-07-17T02:01:04;94929.88;;;24.58;61.59
5777;BME280;2914;42.668;23.346;2022-07-17T02:03:33;94920.58;;;24.44;62.25
5777;BME280;2914;42.668;23.346;2022-07-17T02:06:02;94934.20;;;24.49;62.81
5777;BME280;2914;42.668;23.346;2022-07-17T02:08:31;94936.44;;;24.43;62.90
5777;BME280;2914;42.668;23.346;2022-07-17T02:11:00;94943.45;;;24.35;63.53
5777;BME280;2914;42.668;23.346;2022-07-17T02:13:29;94938.10;;;24.28;64.08
5777;BME280;2914;42.668;23.346;2022-07-17T02:15:58;94938.90;;;24.19;63.95
5777;BME280;2914;42.668;23.346;2022-07-17T02:18:27;94935.49;;;24.15;64.09
5777;BME280;2914;42.668;23.346;2022-07-17T02:20:56;94940.51;;;24.11;64.11
5777;BME280;2914;42.668;23.346;2022-07-17T02:23:25;94942.36;;;24.11;64.29
5777;BME280;2914;42.668;23.346;2022-07-17T02:25:56;94943.92;;;24.09;63.69
5777;BME280;2914;42.668;23.346;2022-07-17T02:28:25;94936.66;;;24.10;63.98
5777;BME280;2914;42.668;23.346;2022-07-17T02:30:54;94939.42;;;24.03;64.20
5777;BME280;2914;42.668;23.346;2022-07-17T02:33:23;94935.44;;;24.05;63.46
5777;BME280;2914;42.668;23.346;2022-07-17T02:35:52;94941.48;;;24.01;63.60
5777;BME280;2914;42.668;23.346;2022-07-17T02:38:21;94942.69;;;23.89;63.82
5777;BME280;2914;42.668;23.346;2022-07-17T02:40:50;94933.07;;;23.91;63.50
5777;BME280;2914;42.668;23.346;2022-07-17T02:43:19;94940.62;;;23.84;63.07
5777;BME280;2914;42.668;23.346;2022-07-17T02:45:48;94940.67;;;23.71;63.82
5777;BME280;2914;42.668;23.346;2022-07-17T02:48:18;94945.97;;;23.68;63.62
5777;BME280;2914;42.668;23.346;2022-07-17T02:50:47;94950.91;;;23.55;64.00
5777;BME280;2914;42.668;23.346;2022-07-17T02:53:16;94951.94;;;23.54;63.91
5777;BME280;2914;42.668;23.346;2022-07-17T02:55:45;94954.96;;;23.49;63.56
5777;BME280;2914;42.668;23.346;2022-07-17T02:58:14;94960.12;;;23.50;63.00
5777;BME280;2914;42.668;23.346;2022-07-17T03:00:43;94951.66;;;23.53;62.81
5777;BME280;2914;42.668;23.346;2022-07-17T03:03:12;94956.48;;;23.61;63.17
5777;BME280;2914;42.668;23.346;2022-07-17T03:05:41;94966.45;;;23.53;62.93
5777;BME280;2914;42.668;23.346;2022-07-17T03:08:10;94969.15;;;23.53;63.35
5777;BME280;2914;42.668;23.346;2022-07-17T03:10:41;94972.01;;;23.59;63.15
5777;BME280;2914;42.668;23.346;2022-07-17T03:13:10;94974.31;;;23.55;62.86
5777;BME280;2914;42.668;23.346;2022-07-17T03:15:39;94971.22;;;23.51;62.97
5777;BME280;2914;42.668;23.346;2022-07-17T03:18:08;94971.72;;;23.58;62.35
5777;BME280;2914;42.668;23.346;2022-07-17T03:20:37;94975.71;;;23.64;62.65
5777;BME280;2914;42.668;23.346;2022-07-17T03:23:06;94986.30;;;23.66;62.40
5777;BME280;2914;42.668;23.346;2022-07-17T03:25:36;94984.30;;;23.70;62.96
5777;BME280;2914;42.668;23.346;2022-07-17T03:28:05;94982.17;;;23.79;62.78
5777;BME280;2914;42.668;23.346;2022-07-17T03:30:34;94983.93;;;23.83;62.31
5777;BME280;2914;42.668;23.346;2022-07-17T03:33:04;94985.33;;;23.69;62.10
5777;BME280;2914;42.668;23.346;2022-07-17T03:35:33;94993.80;;;23.80;61.56
5777;BME280;2914;42.668;23.346;2022-07-17T03:38:02;94985.28;;;23.83;61.25
5777;BME280;2914;42.668;23.346;2022-07-17T03:40:31;94991.82;;;23.78;61.08
5777;BME280;2914;42.668;23.346;2022-07-17T03:43:00;95001.03;;;23.79;61.15
5777;BME280;2914;42.668;23.346;2022-07-17T03:45:29;94994.42;;;23.75;62.16
5777;BME280;2914;42.668;23.346;2022-07-17T03:50:36;95000.23;;;23.72;62.04
5777;BME280;2914;42.668;23.346;2022-07-17T03:53:05;95003.24;;;23.73;61.52
5777;BME280;2914;42.668;23.346;2022-07-17T03:55:34;95000.02;;;23.74;61.41
5777;BME280;2914;42.668;23.346;2022-07-17T03:58:04;95005.21;;;23.68;61.50
5777;BME280;2914;42.668;23.346;2022-07-17T04:00:33;95020.44;;;23.72;61.70
5777;BME280;2914;42.668;23.346;2022-07-17T04:05:40;95022.30;;;23.78;61.30
5777;BME280;2914;42.668;23.346;2022-07-17T04:08:09;95026.25;;;23.69;61.56
5777;BME280;2914;42.668;23.346;2022-07-17T04:10:40;95036.36;;;23.80;60.92
5777;BME280;2914;42.668;23.346;2022-07-17T04:13:09;95029.83;;;23.92;60.44
5777;BME280;2914;42.668;23.346;2022-07-17T04:15:39;95030.30;;;23.98;60.45
5777;BME280;2914;42.668;23.346;2022-07-17T04:18:26;95027.83;;;23.97;61.07
5777;BME280;2914;42.668;23.346;2022-07-17T04:23:40;95037.39;;;24.15;61.85
5777;BME280;2914;42.668;23.346;2022-07-17T04:26:10;95042.94;;;24.20;62.01
5777;BME280;2914;42.668;23.346;2022-07-17T04:28:39;95048.73;;;24.24;62.01
5777;BME280;2914;42.668;23.346;2022-07-17T04:31:08;95046.02;;;24.31;62.46
5777;BME280;2914;42.668;23.346;2022-07-17T04:33:37;95036.78;;;24.45;61.91
5777;BME280;2914;42.668;23.346;2022-07-17T04:36:06;95038.59;;;24.58;61.43
5777;BME280;2914;42.668;23.346;2022-07-17T04:38:36;95049.38;;;24.74;61.08
5777;BME280;2914;42.668;23.346;2022-07-17T04:41:05;95043.45;;;24.90;60.93
5777;BME280;2914;42.668;23.346;2022-07-17T04:43:34;95052.03;;;24.97;61.51
5777;BME280;2914;42.668;23.346;2022-07-17T04:46:03;95047.00;;;25.00;61.50
5777;BME280;2914;42.668;23.346;2022-07-17T04:48:33;95059.09;;;24.98;61.73
5777;BME280;2914;42.668;23.346;2022-07-17T04:51:02;95057.20;;;24.98;61.07
5777;BME280;2914;42.668;23.346;2022-07-17T04:53:31;95058.67;;;25.10;60.92
5777;BME280;2914;42.668;23.346;2022-07-17T04:56:01;95056.73;;;25.17;61.08
5777;BME280;2914;42.668;23.346;2022-07-17T04:58:30;95066.07;;;25.31;59.29
5777;BME280;2914;42.668;23.346;2022-07-17T05:00:59;95063.77;;;25.34;57.78
5777;BME280;2914;42.668;23.346;2022-07-17T05:03:28;95068.88;;;25.43;57.14
5777;BME280;2914;42.668;23.346;2022-07-17T05:05:57;95075.17;;;25.46;54.60
5777;BME280;2914;42.668;23.346;2022-07-17T05:08:26;95072.05;;;25.58;53.25
5777;BME280;2914;42.668;23.346;2022-07-17T05:10:55;95078.81;;;25.67;52.68
5777;BME280;2914;42.668;23.346;2022-07-17T05:13:24;95082.20;;;25.81;51.76
5777;BME280;2914;42.668;23.346;2022-07-17T05:15:53;95084.45;;;25.94;51.59
5777;BME280;2914;42.668;23.346;2022-07-17T05:18:22;95075.69;;;26.07;52.41
5777;BME280;2914;42.668;23.346;2022-07-17T05:20:51;95081.55;;;26.23;53.71
5777;BME280;2914;42.668;23.346;2022-07-17T05:23:21;95076.57;;;26.29;49.64
5777;BME280;2914;42.668;23.346;2022-07-17T05:25:49;95075.75;;;26.38;48.41
5777;BME280;2914;42.668;23.346;2022-07-17T05:28:19;95080.16;;;26.41;47.86
5777;BME280;2914;42.668;23.346;2022-07-17T05:30:48;95082.22;;;26.58;48.40
5777;BME280;2914;42.668;23.346;2022-07-17T05:33:17;95092.12;;;26.73;47.96
5777;BME280;2914;42.668;23.346;2022-07-17T05:38:23;95083.58;;;26.88;46.75
5777;BME280;2914;42.668;23.346;2022-07-17T05:40:52;95087.20;;;27.03;46.15
5777;BME280;2914;42.668;23.346;2022-07-17T05:43:21;95085.00;;;27.12;44.80
5777;BME280;2914;42.668;23.346;2022-07-17T05:45:53;95085.55;;;27.23;45.26
5777;BME280;2914;42.668;23.346;2022-07-17T05:48:22;95089.91;;;27.24;44.53
5777;BME280;2914;42.668;23.346;2022-07-17T05:50:52;95087.77;;;27.26;42.25
5777;BME280;2914;42.668;23.346;2022-07-17T05:53:22;95089.83;;;27.34;43.47
5777;BME280;2914;42.668;23.346;2022-07-17T05:55:52;95093.64;;;27.45;42.92
5777;BME280;2914;42.668;23.346;2022-07-17T05:58:21;95100.13;;;27.55;43.87
5777;BME280;2914;42.668;23.346;2022-07-17T06:00:51;95093.61;;;27.66;42.91
5777;BME280;2914;42.668;23.346;2022-07-17T06:03:21;95093.42;;;27.70;41.45
5777;BME280;2914;42.668;23.346;2022-07-17T06:05:50;95096.11;;;27.82;41.31
5777;BME280;2914;42.668;23.346;2022-07-17T06:08:19;95095.00;;;27.80;40.57
5777;BME280;2914;42.668;23.346;2022-07-17T06:10:48;95099.87;;;27.81;40.15
5777;BME280;2914;42.668;23.346;2022-07-17T06:13:17;95104.18;;;27.91;39.65
5777;BME280;2914;42.668;23.346;2022-07-17T06:15:46;95096.23;;;27.99;39.20
5777;BME280;2914;42.668;23.346;2022-07-17T06:18:15;95101.16;;;28.14;40.47
5777;BME280;2914;42.668;23.346;2022-07-17T06:23:22;95098.78;;;28.43;40.72
5777;BME280;2914;42.668;23.346;2022-07-17T06:25:51;95107.77;;;28.44;39.67
5777;BME280;2914;42.668;23.346;2022-07-17T06:28:20;95101.84;;;28.47;39.25
5777;BME280;2914;42.668;23.346;2022-07-17T06:30:49;95099.13;;;28.61;40.10
5777;BME280;2914;42.668;23.346;2022-07-17T06:33:19;95100.61;;;28.67;39.12
5777;BME280;2914;42.668;23.346;2022-07-17T06:35:48;95108.75;;;28.67;39.00
5777;BME280;2914;42.668;23.346;2022-07-17T06:38:17;95109.97;;;28.73;39.23
5777;BME280;2914;42.668;23.346;2022-07-17T06:40:46;95108.70;;;28.64;41.42
5777;BME280;2914;42.668;23.346;2022-07-17T06:43:15;95102.46;;;28.64;39.42
5777;BME280;2914;42.668;23.346;2022-07-17T06:45:44;95101.23;;;28.71;38.57
5777;BME280;2914;42.668;23.346;2022-07-17T06:48:13;95097.22;;;28.88;39.01
5777;BME280;2914;42.668;23.346;2022-07-17T06:50:42;95098.84;;;29.04;39.00
5777;BME280;2914;42.668;23.346;2022-07-17T06:53:11;95100.90;;;29.14;38.71
5777;BME280;2914;42.668;23.346;2022-07-17T06:55:41;95097.86;;;29.24;39.38
5777;BME280;2914;42.668;23.346;2022-07-17T06:58:10;95103.42;;;29.32;38.43
5777;BME280;2914;42.668;23.346;2022-07-17T07:00:40;95097.11;;;29.29;39.02
5777;BME280;2914;42.668;23.346;2022-07-17T07:03:09;95096.00;;;29.27;37.87
5777;BME280;2914;42.668;23.346;2022-07-17T07:05:38;95096.34;;;29.31;38.79
5777;BME280;2914;42.668;23.346;2022-07-17T07:08:07;95098.94;;;29.40;37.99
5777;BME280;2914;42.668;23.346;2022-07-17T07:10:36;95107.97;;;29.29;37.58
5777;BME280;2914;42.668;23.346;2022-07-17T07:13:05;95109.19;;;29.21;38.98
5777;BME280;2914;42.668;23.346;2022-07-17T07:15:34;95112.23;;;29.39;39.48
5777;BME280;2914;42.668;23.346;2022-07-17T07:18:04;95116.19;;;29.49;38.66
5777;BME280;2914;42.668;23.346;2022-07-17T07:23:10;95113.52;;;29.54;38.87
5777;BME280;2914;42.668;23.346;2022-07-17T07:25:40;95110.25;;;29.52;37.99
5777;BME280;2914;42.668;23.346;2022-07-17T07:28:11;95112.72;;;29.53;38.38
5777;BME280;2914;42.668;23.346;2022-07-17T07:30:40;95114.56;;;29.33;38.04
5777;BME280;2914;42.668;23.346;2022-07-17T07:33:09;95120.12;;;29.41;37.74
5777;BME280;2914;42.668;23.346;2022-07-17T07:35:38;95115.30;;;29.45;37.58
5777;BME280;2914;42.668;23.346;2022-07-17T07:38:08;95124.09;;;29.50;38.40
5777;BME280;2914;42.668;23.346;2022-07-17T07:40:37;95118.19;;;29.07;37.95
5777;BME280;2914;42.668;23.346;2022-07-17T07:43:06;95116.94;;;28.98;39.74
5777;BME280;2914;42.668;23.346;2022-07-17T07:45:36;95114.92;;;29.22;39.49
5777;BME280;2914;42.668;23.346;2022-07-17T07:48:06;95115.55;;;29.44;38.16
5777;BME280;2914;42.668;23.346;2022-07-17T07:50:35;95121.63;;;29.49;38.58
5777;BME280;2914;42.668;23.346;2022-07-17T07:53:08;95121.41;;;29.53;38.38
5777;BME280;2914;42.668;23.346;2022-07-17T07:55:37;95112.55;;;29.60;38.32
5777;BME280;2914;42.668;23.346;2022-07-17T07:58:08;95111.31;;;29.68;37.23
5777;BME280;2914;42.668;23.346;2022-07-17T08:00:39;95117.06;;;29.71;37.11
5777;BME280;2914;42.668;23.346;2022-07-17T08:03:08;95116.84;;;29.75;37.51
5777;BME280;2914;42.668;23.346;2022-07-17T08:05:37;95119.82;;;29.74;36.96
5777;BME280;2914;42.668;23.346;2022-07-17T08:08:07;95115.91;;;29.84;37.90
5777;BME280;2914;42.668;23.346;2022-07-17T08:10:36;95116.84;;;29.56;35.57
5777;BME280;2914;42.668;23.346;2022-07-17T08:13:05;95117.19;;;29.62;36.08
5777;BME280;2914;42.668;23.346;2022-07-17T08:15:35;95114.37;;;29.54;37.71
5777;BME280;2914;42.668;23.346;2022-07-17T08:20:41;95127.03;;;30.00;37.35
5777;BME280;2914;42.668;23.346;2022-07-17T08:25:54;95122.44;;;30.03;35.21
5777;BME280;2914;42.668;23.346;2022-07-17T08:28:23;95115.52;;;29.95;35.01
5777;BME280;2914;42.668;23.346;2022-07-17T08:30:52;95119.47;;;30.04;36.03
5777;BME280;2914;42.668;23.346;2022-07-17T08:33:21;95111.09;;;29.89;36.57
5777;BME280;2914;42.668;23.346;2022-07-17T08:35:50;95113.88;;;30.14;37.62
5777;BME280;2914;42.668;23.346;2022-07-17T08:38:19;95114.14;;;30.12;36.85
5777;BME280;2914;42.668;23.346;2022-07-17T08:40:48;95118.36;;;30.03;35.91
5777;BME280;2914;42.668;23.346;2022-07-17T08:45:57;95118.58;;;29.99;35.49
5777;BME280;2914;42.668;23.346;2022-07-17T08:48:27;95121.66;;;30.05;35.29
5777;BME280;2914;42.668;23.346;2022-07-17T08:50:59;95114.36;;;30.08;36.16
5777;BME280;2914;42.668;23.346;2022-07-17T08:53:28;95118.91;;;30.02;36.26
5777;BME280;2914;42.668;23.346;2022-07-17T08:58:35;95112.14;;;30.05;35.09
5777;BME280;2914;42.668;23.346;2022-07-17T09:01:04;95105.11;;;29.89;36.19
5777;BME280;2914;42.668;23.346;2022-07-17T09:03:33;95097.56;;;29.77;36.33
5777;BME280;2914;42.668;23.346;2022-07-17T09:06:04;95099.00;;;29.63;35.49
5777;BME280;2914;42.668;23.346;2022-07-17T09:08:33;95100.31;;;29.60;36.07
5777;BME280;2914;42.668;23.346;2022-07-17T09:11:05;95097.44;;;29.67;35.69
5777;BME280;2914;42.668;23.346;2022-07-17T09:13:35;95104.35;;;29.57;34.99
5777;BME280;2914;42.668;23.346;2022-07-17T09:16:09;95100.91;;;29.45;35.85
5777;BME280;2914;42.668;23.346;2022-07-17T09:18:45;95103.73;;;29.36;35.90
5777;BME280;2914;42.668;23.346;2022-07-17T09:21:19;95102.55;;;29.46;36.49
5777;BME280;2914;42.668;23.346;2022-07-17T09:23:59;95096.27;;;29.43;36.42
5777;BME280;2914;42.668;23.346;2022-07-17T09:26:29;95101.71;;;29.45;36.83
5777;BME280;2914;42.668;23.346;2022-07-17T09:29:01;95096.70;;;29.54;36.90
5777;BME280;2914;42.668;23.346;2022-07-17T09:31:32;95099.51;;;29.59;36.06
5777;BME280;2914;42.668;23.346;2022-07-17T09:34:02;95105.45;;;29.59;34.23
5777;BME280;2914;42.668;23.346;2022-07-17T09:36:31;95090.84;;;29.63;34.74
5777;BME280;2914;42.668;23.346;2022-07-17T09:39:00;95094.45;;;29.49;35.86
5777;BME280;2914;42.668;23.346;2022-07-17T09:41:29;95091.66;;;29.63;35.13
5777;BME280;2914;42.668;23.346;2022-07-17T09:44:00;95095.39;;;29.57;35.87
5777;BME280;2914;42.668;23.346;2022-07-17T09:46:31;95102.45;;;29.58;34.50
5777;BME280;2914;42.668;23.346;2022-07-17T09:49:02;95100.05;;;29.42;35.35
5777;BME280;2914;42.668;23.346;2022-07-17T09:51:33;95100.95;;;29.48;35.77
5777;BME280;2914;42.668;23.346;2022-07-17T09:54:06;95094.86;;;29.40;34.28
5777;BME280;2914;42.668;23.346;2022-07-17T09:59:20;95095.91;;;29.56;35.02
5777;BME280;2914;42.668;23.346;2022-07-17T10:01:49;95092.84;;;29.50;34.49
5777;BME280;2914;42.668;23.346;2022-07-17T10:04:19;95093.25;;;29.42;34.62
5777;BME280;2914;42.668;23.346;2022-07-17T10:06:48;95096.22;;;29.40;35.19
5777;BME280;2914;42.668;23.346;2022-07-17T10:09:18;95096.00;;;29.27;35.63
5777;BME280;2914;42.668;23.346;2022-07-17T10:11:48;95093.02;;;29.26;35.37
5777;BME280;2914;42.668;23.346;2022-07-17T10:14:18;95096.11;;;29.18;35.45
5777;BME280;2914;42.668;23.346;2022-07-17T10:19:33;95096.17;;;28.92;35.46
5777;BME280;2914;42.668;23.346;2022-07-17T10:24:45;95089.42;;;29.09;36.26
5777;BME280;2914;42.668;23.346;2022-07-17T10:27:20;95088.02;;;28.89;36.12
5777;BME280;2914;42.668;23.346;2022-07-17T10:30:01;95084.89;;;28.98;35.92
5777;BME280;2914;42.668;23.346;2022-07-17T10:32:31;95078.83;;;28.93;35.74
5777;BME280;2914;42.668;23.346;2022-07-17T10:35:01;95082.19;;;28.98;36.14
5777;BME280;2914;42.668;23.346;2022-07-17T10:37:38;95077.97;;;29.07;37.04
5777;BME280;2914;42.668;23.346;2022-07-17T10:40:11;95083.00;;;29.15;35.97
5777;BME280;2914;42.668;23.346;2022-07-17T10:42:56;95072.05;;;29.24;35.53
5777;BME280;2914;42.668;23.346;2022-07-17T10:45:29;95078.30;;;29.25;36.75
5777;BME280;2914;42.668;23.346;2022-07-17T10:48:03;95072.13;;;29.15;35.33
5777;BME280;2914;42.668;23.346;2022-07-17T10:50:34;95061.37;;;29.03;35.77
5777;BME280;2914;42.668;23.346;2022-07-17T10:53:13;95071.93;;;29.02;36.65
5777;BME280;2914;42.668;23.346;2022-07-17T10:55:45;95067.75;;;29.11;36.67
5777;BME280;2914;42.668;23.346;2022-07-17T10:58:24;95066.16;;;29.30;35.99
5777;BME280;2914;42.668;23.346;2022-07-17T11:01:02;95072.45;;;29.33;35.75
5777;BME280;2914;42.668;23.346;2022-07-17T11:06:14;95064.20;;;29.25;35.90
5777;BME280;2914;42.668;23.346;2022-07-17T11:11:34;95066.75;;;29.18;35.23
5777;BME280;2914;42.668;23.346;2022-07-17T11:16:33;95069.16;;;29.14;35.26
5777;BME280;2914;42.668;23.346;2022-07-17T11:19:02;95057.66;;;29.09;35.36
5777;BME280;2914;42.668;23.346;2022-07-17T11:21:32;95064.53;;;28.98;35.70
5777;BME280;2914;42.668;23.346;2022-07-17T11:26:39;95048.70;;;29.09;36.66
5777;BME280;2914;42.668;23.346;2022-07-17T11:29:08;95048.19;;;29.12;37.37
5777;BME280;2914;42.668;23.346;2022-07-17T11:31:38;95049.84;;;29.13;36.67
5777;BME280;2914;42.668;23.346;2022-07-17T11:36:45;95041.79;;;29.18;35.63
5777;BME280;2914;42.668;23.346;2022-07-17T11:41:55;95030.80;;;29.27;36.47
5777;BME280;2914;42.668;23.346;2022-07-17T11:44:25;95030.34;;;29.16;36.69
5777;BME280;2914;42.668;23.346;2022-07-17T11:46:54;95025.03;;;29.24;36.63
5777;BME280;2914;42.668;23.346;2022-07-17T11:49:28;95034.31;;;29.25;36.84
5777;BME280;2914;42.668;23.346;2022-07-17T11:51:59;95028.77;;;29.20;36.92
5777;BME280;2914;42.668;23.346;2022-07-17T11:54:29;95021.33;;;29.13;36.98
5777;BME280;2914;42.668;23.346;2022-07-17T11:56:59;95020.06;;;29.18;36.91
5777;BME280;2914;42.668;23.346;2022-07-17T11:59:31;95021.42;;;29.35;37.17
5777;BME280;2914;42.668;23.346;2022-07-17T12:02:09;95019.31;;;29.40;36.63
5777;BME280;2914;42.668;23.346;2022-07-17T12:04:48;95016.28;;;29.36;36.19
5777;BME280;2914;42.668;23.346;2022-07-17T12:07:19;95010.05;;;29.38;36.15
5777;BME280;2914;42.668;23.346;2022-07-17T12:12:27;95008.60;;;29.50;36.91
5777;BME280;2914;42.668;23.346;2022-07-17T12:14:58;95005.34;;;29.51;36.99
5777;BME280;2914;42.668;23.346;2022-07-17T12:17:37;95004.31;;;29.54;36.74
5777;BME280;2914;42.668;23.346;2022-07-17T12:22:52;95007.81;;;29.72;37.33
5777;BME280;2914;42.668;23.346;2022-07-17T12:25:26;95005.58;;;29.69;37.27
5777;BME280;2914;42.668;23.346;2022-07-17T12:30:33;95011.19;;;29.59;37.48
5777;BME280;2914;42.668;23.346;2022-07-17T12:35:40;95006.56;;;29.40;37.48
5777;BME280;2914;42.668;23.346;2022-07-17T12:38:09;95001.38;;;29.39;37.09
5777;BME280;2914;42.668;23.346;2022-07-17T12:43:15;95005.59;;;29.49;36.87
5777;BME280;2914;42.668;23.346;2022-07-17T12:45:45;95003.17;;;29.33;37.62
5777;BME280;2914;42.668;23.346;2022-07-17T12:50:52;95005.00;;;29.27;38.25
5777;BME280;2914;42.668;23.346;2022-07-17T12:53:21;95008.27;;;29.13;38.17
5777;BME280;2914;42.668;23.346;2022-07-17T12:55:50;95010.52;;;29.16;38.12
5777;BME280;2914;42.668;23.346;2022-07-17T12:58:19;95006.23;;;29.20;38.99
5777;BME280;2914;42.668;23.346;2022-07-17T13:00:48;94992.81;;;29.30;38.98
5777;BME280;2914;42.668;23.346;2022-07-17T13:03:17;94990.14;;;29.33;39.15
5777;BME280;2914;42.668;23.346;2022-07-17T13:05:46;94990.35;;;29.28;39.49
5777;BME280;2914;42.668;23.346;2022-07-17T13:08:16;94994.86;;;29.23;39.69
5777;BME280;2914;42.668;23.346;2022-07-17T13:10:45;94985.31;;;29.20;39.99
5777;BME280;2914;42.668;23.346;2022-07-17T13:13:14;94989.55;;;29.14;40.66
5777;BME280;2914;42.668;23.346;2022-07-17T13:15:43;94986.80;;;29.11;40.40
5777;BME280;2914;42.668;23.346;2022-07-17T13:20:48;94986.41;;;29.36;41.26
5777;BME280;2914;42.668;23.346;2022-07-17T13:25:54;94980.84;;;29.28;41.20
5777;BME280;2914;42.668;23.346;2022-07-17T13:28:23;94978.17;;;29.31;41.43
5777;BME280;2914;42.668;23.346;2022-07-17T13:30:52;94975.45;;;29.31;41.84
5777;BME280;2914;42.668;23.346;2022-07-17T13:33:21;94971.94;;;29.33;42.13
5777;BME280;2914;42.668;23.346;2022-07-17T13:35:51;94979.36;;;29.38;42.01
5777;BME280;2914;42.668;23.346;2022-07-17T13:38:22;94974.34;;;29.49;41.44
5777;BME280;2914;42.668;23.346;2022-07-17T13:40:51;94970.77;;;29.46;41.82
5777;BME280;2914;42.668;23.346;2022-07-17T13:43:20;94972.64;;;29.43;41.29
5777;BME280;2914;42.668;23.346;2022-07-17T13:45:49;94965.77;;;29.38;40.72
5777;BME280;2914;42.668;23.346;2022-07-17T13:48:18;94961.95;;;29.36;41.62
5777;BME280;2914;42.668;23.346;2022-07-17T13:50:48;94962.86;;;29.25;40.84
5777;BME280;2914;42.668;23.346;2022-07-17T13:53:17;94963.48;;;29.30;40.20
5777;BME280;2914;42.668;23.346;2022-07-17T14:11:23;94943.84;;;29.25;42.33
5777;BME280;2914;42.668;23.346;2022-07-17T14:13:52;94952.54;;;29.24;42.67
5777;BME280;2914;42.668;23.346;2022-07-17T14:16:22;94947.92;;;29.25;41.99
5777;BME280;2914;42.668;23.346;2022-07-17T14:18:51;94948.65;;;29.20;41.68
5777;BME280;2914;42.668;23.346;2022-07-17T14:21:26;94944.14;;;29.09;42.18
5777;BME280;2914;42.668;23.346;2022-07-17T14:23:55;94948.43;;;29.05;42.36
5777;BME280;2914;42.668;23.346;2022-07-17T14:26:25;94943.72;;;28.98;42.57
5777;BME280;2914;42.668;23.346;2022-07-17T14:28:54;94939.52;;;28.90;43.07
5777;BME280;2914;42.668;23.346;2022-07-17T14:31:23;94944.50;;;28.79;42.99
5777;BME280;2914;42.668;23.346;2022-07-17T14:33:52;94942.02;;;28.94;42.58
5777;BME280;2914;42.668;23.346;2022-07-17T14:36:22;94940.02;;;28.87;42.68
5777;BME280;2914;42.668;23.346;2022-07-17T14:38:51;94938.55;;;28.99;43.67
5777;BME280;2914;42.668;23.346;2022-07-17T14:41:20;94932.73;;;29.09;44.40
5777;BME280;2914;42.668;23.346;2022-07-17T14:43:49;94929.00;;;29.13;43.67
5777;BME280;2914;42.668;23.346;2022-07-17T14:46:18;94936.64;;;29.16;43.47
5777;BME280;2914;42.668;23.346;2022-07-17T14:48:48;94941.67;;;29.24;43.68
5777;BME280;2914;42.668;23.346;2022-07-17T14:51:17;94941.42;;;29.26;43.64
5777;BME280;2914;42.668;23.346;2022-07-17T14:53:47;94941.54;;;29.34;44.17
5777;BME280;2914;42.668;23.346;2022-07-17T14:56:16;94939.37;;;29.36;44.14
5777;BME280;2914;42.668;23.346;2022-07-17T14:58:45;94932.84;;;29.34;44.25